<?xml version="1.0" encoding="utf-8"?>
<gpx xmlns:xsi="http://www.w3.org/2001/XMLSchema-instance" xmlns:xsd="http://www.w3.org/2001/XMLSchema" version="1.1" creator="Shapelink.com" xmlns="http://www.topografix.com/GPX/1/1" xmlns:gpxtpx="http://www.garmin.com/xmlschemas/TrackPointExtension/v1">
  <metadata>
    <name>Övrigt 2.11 km, 2019-05-30</name>
    <desc></desc>
    <author><name>Marian Moron</name></author> 
    <time>2019-05-30T20:40:03Z</time>
  </metadata>
  <trk>
    <name>Övrigt 2.11 km, 2019-05-30</name>
    <trkseg>
      <trkpt lat="51.229858394931" lon="4.457864480885">
        <ele>13.2</ele>
        <time>2019-05-30T20:40:03Z</time>
      </trkpt>
      <trkpt lat="51.229915810946" lon="4.457958358165">
        <ele>13</ele>
        <time>2019-05-30T20:40:14Z</time>
      </trkpt>
      <trkpt lat="51.229990409856" lon="4.458396228621">
        <ele>12.2</ele>
        <time>2019-05-30T20:40:34Z</time>
      </trkpt>
      <trkpt lat="51.230027541673" lon="4.458833428525">
        <ele>11</ele>
        <time>2019-05-30T20:41:03Z</time>
      </trkpt>
      <trkpt lat="51.230151677612" lon="4.458786322247">
        <ele>10.6</ele>
        <time>2019-05-30T20:41:18Z</time>
      </trkpt>
      <trkpt lat="51.23026919185" lon="4.458756901778">
        <ele>10.2</ele>
        <time>2019-05-30T20:41:28Z</time>
      </trkpt>
      <trkpt lat="51.230391902866" lon="4.458753046104">
        <ele>9.6</ele>
        <time>2019-05-30T20:41:54Z</time>
      </trkpt>
      <trkpt lat="51.230446385216" lon="4.45890341739">
        <ele>9.8</ele>
        <time>2019-05-30T20:42:04Z</time>
      </trkpt>
      <trkpt lat="51.230441439895" lon="4.458954127885">
        <ele>9.6</ele>
        <time>2019-05-30T20:42:08Z</time>
      </trkpt>
      <trkpt lat="51.230531293863" lon="4.459325446055">
        <ele>10.6</ele>
        <time>2019-05-30T20:42:32Z</time>
      </trkpt>
      <trkpt lat="51.230565827291" lon="4.459689891067">
        <ele>12</ele>
        <time>2019-05-30T20:43:00Z</time>
      </trkpt>
      <trkpt lat="51.23067487581" lon="4.459814027006">
        <ele>12.6</ele>
        <time>2019-05-30T20:43:17Z</time>
      </trkpt>
      <trkpt lat="51.230798508835" lon="4.459805980382">
        <ele>12.4</ele>
        <time>2019-05-30T20:43:32Z</time>
      </trkpt>
      <trkpt lat="51.23122808121" lon="4.45965108287">
        <ele>11.8</ele>
        <time>2019-05-30T20:44:06Z</time>
      </trkpt>
      <trkpt lat="51.231312654581" lon="4.459630547215">
        <ele>10.8</ele>
        <time>2019-05-30T20:44:20Z</time>
      </trkpt>
      <trkpt lat="51.231469312292" lon="4.459632307414">
        <ele>8</ele>
        <time>2019-05-30T20:44:53Z</time>
      </trkpt>
      <trkpt lat="51.231531925085" lon="4.459613783415">
        <ele>8</ele>
        <time>2019-05-30T20:45:05Z</time>
      </trkpt>
      <trkpt lat="51.231679111249" lon="4.459631972138">
        <ele>4</ele>
        <time>2019-05-30T20:45:23Z</time>
      </trkpt>
      <trkpt lat="51.231725798432" lon="4.459794245722">
        <ele>2.4</ele>
        <time>2019-05-30T20:45:30Z</time>
      </trkpt>
      <trkpt lat="51.231846749249" lon="4.459922740249">
        <ele>2.4</ele>
        <time>2019-05-30T20:45:51Z</time>
      </trkpt>
      <trkpt lat="51.23189025131" lon="4.460001697747">
        <ele>3.2</ele>
        <time>2019-05-30T20:46:01Z</time>
      </trkpt>
      <trkpt lat="51.231908272395" lon="4.460172856145">
        <ele>4.6</ele>
        <time>2019-05-30T20:46:16Z</time>
      </trkpt>
      <trkpt lat="51.231943392556" lon="4.460289280736">
        <ele>7</ele>
        <time>2019-05-30T20:46:26Z</time>
      </trkpt>
      <trkpt lat="51.232051351428" lon="4.461001993693">
        <ele>12.2</ele>
        <time>2019-05-30T20:47:05Z</time>
      </trkpt>
      <trkpt lat="51.232155622264" lon="4.461710180424">
        <ele>12.2</ele>
        <time>2019-05-30T20:47:44Z</time>
      </trkpt>
      <trkpt lat="51.232187389665" lon="4.4618362442">
        <ele>17.8</ele>
        <time>2019-05-30T20:47:54Z</time>
      </trkpt>
      <trkpt lat="51.23228587699" lon="4.462165736689">
        <ele>21.6</ele>
        <time>2019-05-30T20:48:11Z</time>
      </trkpt>
      <trkpt lat="51.232294510347" lon="4.462502353793">
        <ele>23.6</ele>
        <time>2019-05-30T20:48:37Z</time>
      </trkpt>
      <trkpt lat="51.232315129821" lon="4.462812567912">
        <ele>23.6</ele>
        <time>2019-05-30T20:49:16Z</time>
      </trkpt>
      <trkpt lat="51.232386543609" lon="4.462941062439">
        <ele>19.4</ele>
        <time>2019-05-30T20:49:35Z</time>
      </trkpt>
      <trkpt lat="51.232384029039" lon="4.463019684661">
        <ele>19.8</ele>
        <time>2019-05-30T20:49:40Z</time>
      </trkpt>
      <trkpt lat="51.23237221056" lon="4.46304239961">
        <ele>21.6</ele>
        <time>2019-05-30T20:49:42Z</time>
      </trkpt>
      <trkpt lat="51.232394590233" lon="4.463168547205">
        <ele>21.6</ele>
        <time>2019-05-30T20:49:53Z</time>
      </trkpt>
      <trkpt lat="51.232553930152" lon="4.463859131946">
        <ele>12.4</ele>
        <time>2019-05-30T20:50:26Z</time>
      </trkpt>
      <trkpt lat="51.232215971944" lon="4.464100279209">
        <ele>6.4</ele>
        <time>2019-05-30T20:51:00Z</time>
      </trkpt>
      <trkpt lat="51.231843145032" lon="4.463682357675">
        <ele>6.2</ele>
        <time>2019-05-30T20:51:36Z</time>
      </trkpt>
      <trkpt lat="51.231688750434" lon="4.463528382172">
        <ele>5</ele>
        <time>2019-05-30T20:51:57Z</time>
      </trkpt>
      <trkpt lat="51.231415668132" lon="4.463275667887">
        <ele>4.8</ele>
        <time>2019-05-30T20:52:28Z</time>
      </trkpt>
      <trkpt lat="51.231311816391" lon="4.463180952417">
        <ele>6.6</ele>
        <time>2019-05-30T20:52:49Z</time>
      </trkpt>
      <trkpt lat="51.231122133994" lon="4.463254126404">
        <ele>7.4</ele>
        <time>2019-05-30T20:53:07Z</time>
      </trkpt>
      <trkpt lat="51.230772524945" lon="4.463353116643">
        <ele>9.4</ele>
        <time>2019-05-30T20:53:42Z</time>
      </trkpt>
      <trkpt lat="51.230379497654" lon="4.463502230644">
        <ele>12.6</ele>
        <time>2019-05-30T20:54:20Z</time>
      </trkpt>
      <trkpt lat="51.230156790571" lon="4.464062812116">
        <ele>0</ele>
        <time>2019-05-30T20:55:03Z</time>
      </trkpt>
      <trkpt lat="51.230022093438" lon="4.464176973594">
        <ele>0.6</ele>
        <time>2019-05-30T20:55:19Z</time>
      </trkpt>
      <trkpt lat="51.229993259702" lon="4.464192983023">
        <ele>0.8</ele>
        <time>2019-05-30T20:55:22Z</time>
      </trkpt>
      <trkpt lat="51.229743311444" lon="4.464279819507">
        <ele>2.2</ele>
        <time>2019-05-30T20:55:46Z</time>
      </trkpt>
      <trkpt lat="51.229637867142" lon="4.464278981317">
        <ele>5.8</ele>
        <time>2019-05-30T20:56:07Z</time>
      </trkpt>
      <trkpt lat="51.229408035444" lon="4.464186193684">
        <ele>10.6</ele>
        <time>2019-05-30T20:56:29Z</time>
      </trkpt>
      <trkpt lat="51.229014756696" lon="4.464178901431">
        <ele>12.4</ele>
        <time>2019-05-30T20:57:10Z</time>
      </trkpt>
      <trkpt lat="51.228958514147" lon="4.464155348292">
        <ele>9.2</ele>
        <time>2019-05-30T20:57:18Z</time>
      </trkpt>
      <trkpt lat="51.228572779109" lon="4.464098686648">
        <ele>2.2</ele>
        <time>2019-05-30T20:58:21Z</time>
      </trkpt>
      <trkpt lat="51.22856682796" lon="4.464068260351">
        <ele>3</ele>
        <time>2019-05-30T20:58:23Z</time>
      </trkpt>
      <trkpt lat="51.228439339261" lon="4.463638268881">
        <ele>4.4</ele>
        <time>2019-05-30T20:59:01Z</time>
      </trkpt>
      <trkpt lat="51.228204226966" lon="4.463283211597">
        <ele>8.8</ele>
        <time>2019-05-30T20:59:56Z</time>
      </trkpt>
      <trkpt lat="51.227862580722" lon="4.463037705746">
        <ele>5.4</ele>
        <time>2019-05-30T21:01:13Z</time>
      </trkpt>
      <trkpt lat="51.227833076434" lon="4.462789517687">
        <ele>4.2</ele>
        <time>2019-05-30T21:01:32Z</time>
      </trkpt>
      <trkpt lat="51.227813630426" lon="4.462138244057">
        <ele>3</ele>
        <time>2019-05-30T21:02:19Z</time>
      </trkpt>
      <trkpt lat="51.227783455586" lon="4.4615596415">
        <ele>6.4</ele>
        <time>2019-05-30T21:02:58Z</time>
      </trkpt>
      <trkpt lat="51.227798962101" lon="4.460856232452">
        <ele>10.4</ele>
        <time>2019-05-30T21:03:47Z</time>
      </trkpt>
      <trkpt lat="51.227767529976" lon="4.460651546454">
        <ele>10.2</ele>
        <time>2019-05-30T21:04:00Z</time>
      </trkpt>
      <trkpt lat="51.228140440707" lon="4.460413584313">
        <ele>27.4</ele>
        <time>2019-05-30T21:05:21Z</time>
      </trkpt>
      <trkpt lat="51.228253680176" lon="4.460113093198">
        <ele>11</ele>
        <time>2019-05-30T21:05:32Z</time>
      </trkpt>
      <trkpt lat="51.228306821422" lon="4.459657285476">
        <ele>0</ele>
        <time>2019-05-30T21:06:05Z</time>
      </trkpt>
      <trkpt lat="51.228459288183" lon="4.459272640085">
        <ele>0</ele>
        <time>2019-05-30T21:06:32Z</time>
      </trkpt>
      <trkpt lat="51.228542939545" lon="4.458879780432">
        <ele>1.2</ele>
        <time>2019-05-30T21:06:54Z</time>
      </trkpt>
      <trkpt lat="51.228527852125" lon="4.4587265593">
        <ele>4.2</ele>
        <time>2019-05-30T21:07:10Z</time>
      </trkpt>
      <trkpt lat="51.228560541535" lon="4.458282486238">
        <ele>6.8</ele>
        <time>2019-05-30T21:07:46Z</time>
      </trkpt>
      <trkpt lat="51.228818201141" lon="4.45814317906">
        <ele>9.8</ele>
        <time>2019-05-30T21:08:21Z</time>
      </trkpt>
      <trkpt lat="51.229272332483" lon="4.458031867428">
        <ele>11.8</ele>
        <time>2019-05-30T21:09:05Z</time>
      </trkpt>
      <trkpt lat="51.229714645346" lon="4.457907396213">
        <ele>16.2</ele>
        <time>2019-05-30T21:09:53Z</time>
      </trkpt>
      <trkpt lat="51.229758650321" lon="4.457856601899">
        <ele>2.8</ele>
        <time>2019-05-30T21:10:55Z</time>
      </trkpt>
      <trkpt lat="51.229785220944" lon="4.457774626917">
        <ele>5.6</ele>
        <time>2019-05-30T21:11:02Z</time>
      </trkpt>
      <trkpt lat="51.229789411894" lon="4.457681923103">
        <ele>4.8</ele>
        <time>2019-05-30T21:11:09Z</time>
      </trkpt>
      <trkpt lat="51.229758147407" lon="4.456981531539">
        <ele>2.6</ele>
        <time>2019-05-30T21:11:53Z</time>
      </trkpt>
      <trkpt lat="51.229672484389" lon="4.456756058429">
        <ele>5.4</ele>
        <time>2019-05-30T21:12:13Z</time>
      </trkpt>
      <trkpt lat="51.229645913766" lon="4.456581463452">
        <ele>7.8</ele>
        <time>2019-05-30T21:12:35Z</time>
      </trkpt>
      <trkpt lat="51.229737611752" lon="4.4565975567">
        <ele>9.4</ele>
        <time>2019-05-30T21:12:46Z</time>
      </trkpt>
      <trkpt lat="51.229793770482" lon="4.456825795837">
        <ele>5.2</ele>
        <time>2019-05-30T21:13:13Z</time>
      </trkpt>
      <trkpt lat="51.229784550392" lon="4.456931659234">
        <ele>5.4</ele>
        <time>2019-05-30T21:13:22Z</time>
      </trkpt>
      <trkpt lat="51.229789160437" lon="4.457114300835">
        <ele>8.8</ele>
        <time>2019-05-30T21:13:36Z</time>
      </trkpt>
      <trkpt lat="51.229817575078" lon="4.457363829998">
        <ele>9.4</ele>
        <time>2019-05-30T21:13:51Z</time>
      </trkpt>
      <trkpt lat="51.229819335277" lon="4.457603636157">
        <ele>4.8</ele>
        <time>2019-05-30T21:14:04Z</time>
      </trkpt>
      <trkpt lat="51.229820424924" lon="4.457644791286">
        <ele>3</ele>
        <time>2019-05-30T21:14:07Z</time>
      </trkpt>
      <trkpt lat="51.229827298082" lon="4.457690724098">
        <ele>1.8</ele>
        <time>2019-05-30T21:14:10Z</time>
      </trkpt>
      <trkpt lat="51.229828052453" lon="4.457763981904">
        <ele>0</ele>
        <time>2019-05-30T21:14:15Z</time>
      </trkpt>
      <trkpt lat="51.229823023313" lon="4.457913682638">
        <ele>2.8</ele>
        <time>2019-05-30T21:14:27Z</time>
      </trkpt>
      <trkpt lat="51.229709616206" lon="4.458007643737">
        <ele>0</ele>
        <time>2019-05-30T21:14:46Z</time>
      </trkpt>
    </trkseg>
  </trk>
</gpx>